sensor_id;sensor_type;location;lat;lon;timestamp;pressure;altitude;pressure_sealevel;temperature;humidity
51081;BME280;37130;55.670;37.596;2023-06-26T00:01:45;99400.63;;;15.66;72.21
51081;BME280;37130;55.670;37.596;2023-06-26T00:04:12;99399.91;;;15.64;72.46
51081;BME280;37130;55.670;37.596;2023-06-26T00:06:41;99387.97;;;15.57;72.69
51081;BME280;37130;55.670;37.596;2023-06-26T00:09:09;99370.78;;;15.48;72.98
51081;BME280;37130;55.670;37.596;2023-06-26T00:11:37;99392.31;;;15.58;73.28
51081;BME280;37130;55.670;37.596;2023-06-26T00:14:04;99391.47;;;15.57;73.14
51081;BME280;37130;55.670;37.596;2023-06-26T00:16:32;99382.19;;;15.50;73.40
51081;BME280;37130;55.670;37.596;2023-06-26T00:19:00;99385.38;;;15.55;72.88
51081;BME280;37130;55.670;37.596;2023-06-26T00:21:27;99388.28;;;15.52;72.70
51081;BME280;37130;55.670;37.596;2023-06-26T00:23:55;99377.63;;;15.40;72.92
51081;BME280;37130;55.670;37.596;2023-06-26T00:26:22;99391.50;;;15.45;73.48
51081;BME280;37130;55.670;37.596;2023-06-26T00:28:51;99384.78;;;15.39;73.54
51081;BME280;37130;55.670;37.596;2023-06-26T00:31:20;99362.91;;;15.21;73.56
51081;BME280;37130;55.670;37.596;2023-06-26T00:33:48;99384.47;;;15.31;74.21
51081;BME280;37130;55.670;37.596;2023-06-26T00:36:15;99393.41;;;15.30;73.67
51081;BME280;37130;55.670;37.596;2023-06-26T00:38:43;99389.59;;;15.21;74.19
51081;BME280;37130;55.670;37.596;2023-06-26T00:41:11;99369.66;;;15.01;74.28
51081;BME280;37130;55.670;37.596;2023-06-26T00:43:40;99393.63;;;15.14;74.26
51081;BME280;37130;55.670;37.596;2023-06-26T00:46:12;99393.00;;;15.10;74.47
51081;BME280;37130;55.670;37.596;2023-06-26T00:48:42;99388.13;;;15.04;74.23
51081;BME280;37130;55.670;37.596;2023-06-26T00:51:12;99387.69;;;15.10;74.11
51081;BME280;37130;55.670;37.596;2023-06-26T00:53:40;99391.31;;;15.22;74.13
51081;BME280;37130;55.670;37.596;2023-06-26T00:56:08;99380.53;;;15.24;74.23
51081;BME280;37130;55.670;37.596;2023-06-26T00:58:36;99389.59;;;15.34;73.17
51081;BME280;37130;55.670;37.596;2023-06-26T01:01:04;99391.81;;;15.40;73.61
51081;BME280;37130;55.670;37.596;2023-06-26T01:03:39;99380.19;;;15.41;73.74
51081;BME280;37130;55.670;37.596;2023-06-26T01:06:07;99382.00;;;15.41;73.55
51081;BME280;37130;55.670;37.596;2023-06-26T01:08:39;99367.38;;;15.33;74.09
51081;BME280;37130;55.670;37.596;2023-06-26T01:11:08;99381.34;;;15.37;74.49
51081;BME280;37130;55.670;37.596;2023-06-26T01:13:36;99373.56;;;15.34;74.08
51081;BME280;37130;55.670;37.596;2023-06-26T01:16:04;99376.16;;;15.36;74.34
51081;BME280;37130;55.670;37.596;2023-06-26T01:18:32;99381.59;;;15.34;74.45
51081;BME280;37130;55.670;37.596;2023-06-26T01:21:02;99375.31;;;15.22;74.96
51081;BME280;37130;55.670;37.596;2023-06-26T01:23:34;99387.69;;;15.23;75.15
51081;BME280;37130;55.670;37.596;2023-06-26T01:26:19;99388.88;;;15.06;74.68
51081;BME280;37130;55.670;37.596;2023-06-26T01:28:50;99383.84;;;15.02;75.61
51081;BME280;37130;55.670;37.596;2023-06-26T01:31:19;99376.06;;;14.99;75.21
51081;BME280;37130;55.670;37.596;2023-06-26T01:33:47;99361.00;;;14.98;75.45
51081;BME280;37130;55.670;37.596;2023-06-26T01:36:15;99369.00;;;15.10;75.27
51081;BME280;37130;55.670;37.596;2023-06-26T01:38:42;99369.31;;;15.19;75.19
51081;BME280;37130;55.670;37.596;2023-06-26T01:41:10;99382.25;;;15.25;75.54
51081;BME280;37130;55.670;37.596;2023-06-26T01:44:09;99379.56;;;15.25;75.13
51081;BME280;37130;55.670;37.596;2023-06-26T01:50:09;99363.03;;;15.07;74.46
51081;BME280;37130;55.670;37.596;2023-06-26T01:52:45;99382.25;;;15.12;75.23
51081;BME280;37130;55.670;37.596;2023-06-26T01:58:03;99371.28;;;15.04;75.24
51081;BME280;37130;55.670;37.596;2023-06-26T02:00:32;99372.13;;;15.04;75.16
51081;BME280;37130;55.670;37.596;2023-06-26T02:03:01;99387.47;;;15.13;75.87
51081;BME280;37130;55.670;37.596;2023-06-26T02:05:30;99384.56;;;15.17;76.16
51081;BME280;37130;55.670;37.596;2023-06-26T02:07:59;99380.31;;;15.14;76.03
51081;BME280;37130;55.670;37.596;2023-06-26T02:10:30;99385.53;;;15.28;75.86
51081;BME280;37130;55.670;37.596;2023-06-26T02:12:58;99378.38;;;15.29;75.53
51081;BME280;37130;55.670;37.596;2023-06-26T02:15:26;99388.28;;;15.40;75.52
51081;BME280;37130;55.670;37.596;2023-06-26T02:17:54;99389.03;;;15.42;75.21
51081;BME280;37130;55.670;37.596;2023-06-26T02:20:21;99394.91;;;15.47;75.23
51081;BME280;37130;55.670;37.596;2023-06-26T02:22:48;99383.25;;;15.48;75.52
51081;BME280;37130;55.670;37.596;2023-06-26T02:25:17;99377.81;;;15.49;75.45
51081;BME280;37130;55.670;37.596;2023-06-26T02:27:45;99395.41;;;15.65;75.22
51081;BME280;37130;55.670;37.596;2023-06-26T02:30:12;99394.91;;;15.72;75.04
51081;BME280;37130;55.670;37.596;2023-06-26T02:32:40;99396.03;;;15.81;75.10
51081;BME280;37130;55.670;37.596;2023-06-26T02:35:07;99375.81;;;15.90;74.65
51081;BME280;37130;55.670;37.596;2023-06-26T02:37:35;99392.06;;;16.11;74.14
51081;BME280;37130;55.670;37.596;2023-06-26T02:40:03;99388.50;;;16.23;73.71
51081;BME280;37130;55.670;37.596;2023-06-26T02:42:34;99396.13;;;16.40;73.24
51081;BME280;37130;55.670;37.596;2023-06-26T02:45:02;99388.66;;;16.57;72.56
51081;BME280;37130;55.670;37.596;2023-06-26T02:47:32;99397.66;;;16.91;72.24
51081;BME280;37130;55.670;37.596;2023-06-26T02:49:59;99392.84;;;17.41;71.06
51081;BME280;37130;55.670;37.596;2023-06-26T02:52:38;99393.72;;;18.19;69.16
51081;BME280;37130;55.670;37.596;2023-06-26T02:55:05;99386.84;;;18.37;68.51
51081;BME280;37130;55.670;37.596;2023-06-26T02:57:33;99398.50;;;19.01;67.29
51081;BME280;37130;55.670;37.596;2023-06-26T03:00:01;99403.91;;;20.03;64.74
51081;BME280;37130;55.670;37.596;2023-06-26T03:02:30;99396.72;;;20.13;63.72
51081;BME280;37130;55.670;37.596;2023-06-26T03:04:58;99392.03;;;20.15;63.91
51081;BME280;37130;55.670;37.596;2023-06-26T03:07:25;99402.13;;;20.42;63.27
51081;BME280;37130;55.670;37.596;2023-06-26T03:09:53;99391.22;;;20.44;63.30
51081;BME280;37130;55.670;37.596;2023-06-26T03:12:21;99401.03;;;21.40;61.01
51081;BME280;37130;55.670;37.596;2023-06-26T03:14:49;99399.72;;;22.09;59.35
51081;BME280;37130;55.670;37.596;2023-06-26T03:17:16;99398.28;;;23.65;55.18
51081;BME280;37130;55.670;37.596;2023-06-26T03:19:46;99401.81;;;25.00;53.08
51081;BME280;37130;55.670;37.596;2023-06-26T03:22:14;99403.44;;;25.50;51.29
51081;BME280;37130;55.670;37.596;2023-06-26T03:24:41;99393.31;;;25.91;50.47
51081;BME280;37130;55.670;37.596;2023-06-26T03:27:10;99395.72;;;27.09;47.86
51081;BME280;37130;55.670;37.596;2023-06-26T03:29:39;99397.97;;;28.25;44.08
51081;BME280;37130;55.670;37.596;2023-06-26T03:32:07;99391.88;;;29.65;40.56
51081;BME280;37130;55.670;37.596;2023-06-26T03:34:35;99395.06;;;29.68;40.73
51081;BME280;37130;55.670;37.596;2023-06-26T03:37:05;99397.97;;;30.83;38.12
51081;BME280;37130;55.670;37.596;2023-06-26T03:39:33;99399.94;;;31.87;37.33
51081;BME280;37130;55.670;37.596;2023-06-26T03:42:00;99403.28;;;31.96;36.86
51081;BME280;37130;55.670;37.596;2023-06-26T03:44:28;99403.94;;;31.98;36.79
51081;BME280;37130;55.670;37.596;2023-06-26T03:46:56;99401.00;;;31.80;35.83
51081;BME280;37130;55.670;37.596;2023-06-26T03:49:23;99393.28;;;32.22;35.28
51081;BME280;37130;55.670;37.596;2023-06-26T03:51:52;99391.81;;;32.89;33.62
51081;BME280;37130;55.670;37.596;2023-06-26T03:54:19;99396.66;;;33.63;32.28
51081;BME280;37130;55.670;37.596;2023-06-26T03:56:47;99384.06;;;34.10;31.43
51081;BME280;37130;55.670;37.596;2023-06-26T03:59:15;99395.31;;;34.81;30.41
51081;BME280;37130;55.670;37.596;2023-06-26T04:01:42;99397.66;;;35.07;29.83
51081;BME280;37130;55.670;37.596;2023-06-26T04:04:10;99402.13;;;35.32;30.11
51081;BME280;37130;55.670;37.596;2023-06-26T04:06:37;99376.09;;;35.40;29.30
51081;BME280;37130;55.670;37.596;2023-06-26T04:09:05;99404.72;;;35.39;29.97
51081;BME280;37130;55.670;37.596;2023-06-26T04:11:32;99399.56;;;34.35;29.45
51081;BME280;37130;55.670;37.596;2023-06-26T04:14:00;99393.44;;;33.84;30.12
51081;BME280;37130;55.670;37.596;2023-06-26T04:16:27;99399.28;;;34.43;29.27
51081;BME280;37130;55.670;37.596;2023-06-26T04:18:54;99396.50;;;34.61;28.73
51081;BME280;37130;55.670;37.596;2023-06-26T04:21:23;99396.75;;;34.72;28.98
51081;BME280;37130;55.670;37.596;2023-06-26T04:23:51;99387.09;;;34.93;28.35
51081;BME280;37130;55.670;37.596;2023-06-26T04:26:19;99401.28;;;35.20;27.60
51081;BME280;37130;55.670;37.596;2023-06-26T04:28:46;99391.44;;;35.36;27.61
51081;BME280;37130;55.670;37.596;2023-06-26T04:31:14;99403.00;;;35.02;26.84
51081;BME280;37130;55.670;37.596;2023-06-26T04:33:42;99392.75;;;35.33;26.81
51081;BME280;37130;55.670;37.596;2023-06-26T04:36:09;99399.16;;;34.80;26.74
51081;BME280;37130;55.670;37.596;2023-06-26T04:38:39;99396.31;;;34.98;26.72
51081;BME280;37130;55.670;37.596;2023-06-26T04:41:06;99393.72;;;35.15;26.77
51081;BME280;37130;55.670;37.596;2023-06-26T04:43:34;99390.13;;;34.61;26.65
51081;BME280;37130;55.670;37.596;2023-06-26T04:46:05;99390.50;;;34.64;26.70
51081;BME280;37130;55.670;37.596;2023-06-26T04:48:32;99402.09;;;35.20;26.36
51081;BME280;37130;55.670;37.596;2023-06-26T04:51:01;99390.72;;;35.40;26.49
51081;BME280;37130;55.670;37.596;2023-06-26T04:53:28;99390.72;;;35.52;25.78
51081;BME280;37130;55.670;37.596;2023-06-26T04:55:55;99390.47;;;35.65;25.43
51081;BME280;37130;55.670;37.596;2023-06-26T04:58:23;99386.34;;;35.91;25.30
51081;BME280;37130;55.670;37.596;2023-06-26T05:00:50;99383.31;;;36.05;25.19
51081;BME280;37130;55.670;37.596;2023-06-26T05:03:17;99389.22;;;36.37;25.61
51081;BME280;37130;55.670;37.596;2023-06-26T05:05:45;99388.00;;;36.16;23.88
51081;BME280;37130;55.670;37.596;2023-06-26T05:08:18;99389.25;;;35.02;24.36
51081;BME280;37130;55.670;37.596;2023-06-26T05:10:45;99390.31;;;34.89;24.37
51081;BME280;37130;55.670;37.596;2023-06-26T05:13:13;99395.56;;;34.91;24.79
51081;BME280;37130;55.670;37.596;2023-06-26T05:15:46;99391.22;;;35.25;24.65
51081;BME280;37130;55.670;37.596;2023-06-26T05:18:14;99395.63;;;35.50;24.29
51081;BME280;37130;55.670;37.596;2023-06-26T05:20:42;99388.56;;;35.30;23.86
51081;BME280;37130;55.670;37.596;2023-06-26T05:23:11;99391.69;;;35.46;23.88
51081;BME280;37130;55.670;37.596;2023-06-26T05:25:40;99386.19;;;35.58;24.56
51081;BME280;37130;55.670;37.596;2023-06-26T05:28:08;99392.41;;;35.76;24.32
51081;BME280;37130;55.670;37.596;2023-06-26T05:30:37;99391.78;;;35.63;24.71
51081;BME280;37130;55.670;37.596;2023-06-26T05:33:06;99388.09;;;35.33;24.65
51081;BME280;37130;55.670;37.596;2023-06-26T05:35:36;99392.63;;;35.75;24.55
51081;BME280;37130;55.670;37.596;2023-06-26T05:38:03;99376.91;;;35.87;24.16
51081;BME280;37130;55.670;37.596;2023-06-26T05:40:31;99389.16;;;35.80;24.45
51081;BME280;37130;55.670;37.596;2023-06-26T05:43:01;99384.25;;;35.70;24.18
51081;BME280;37130;55.670;37.596;2023-06-26T05:45:29;99388.22;;;35.50;23.92
51081;BME280;37130;55.670;37.596;2023-06-26T05:47:57;99385.94;;;35.36;24.01
51081;BME280;37130;55.670;37.596;2023-06-26T05:50:25;99385.91;;;35.47;24.23
51081;BME280;37130;55.670;37.596;2023-06-26T05:52:53;99391.94;;;35.32;24.45
51081;BME280;37130;55.670;37.596;2023-06-26T05:55:21;99386.22;;;34.92;23.99
51081;BME280;37130;55.670;37.596;2023-06-26T05:57:49;99353.44;;;35.02;24.73
51081;BME280;37130;55.670;37.596;2023-06-26T06:00:18;99381.50;;;35.23;23.75
51081;BME280;37130;55.670;37.596;2023-06-26T06:02:45;99369.16;;;34.90;24.67
51081;BME280;37130;55.670;37.596;2023-06-26T06:05:13;99372.97;;;35.01;24.57
51081;BME280;37130;55.670;37.596;2023-06-26T06:07:40;99373.25;;;35.34;23.81
51081;BME280;37130;55.670;37.596;2023-06-26T06:10:08;99379.69;;;35.52;24.08
51081;BME280;37130;55.670;37.596;2023-06-26T06:12:35;99376.59;;;35.48;23.89
51081;BME280;37130;55.670;37.596;2023-06-26T06:15:03;99377.28;;;35.79;23.05
51081;BME280;37130;55.670;37.596;2023-06-26T06:17:31;99382.94;;;35.61;23.10
51081;BME280;37130;55.670;37.596;2023-06-26T06:19:58;99377.91;;;35.58;23.12
51081;BME280;37130;55.670;37.596;2023-06-26T06:22:26;99377.66;;;35.24;22.81
51081;BME280;37130;55.670;37.596;2023-06-26T06:24:53;99364.25;;;35.04;22.41
51081;BME280;37130;55.670;37.596;2023-06-26T06:27:20;99374.91;;;35.36;22.98
51081;BME280;37130;55.670;37.596;2023-06-26T06:29:48;99371.19;;;35.65;22.06
51081;BME280;37130;55.670;37.596;2023-06-26T06:32:15;99374.47;;;36.03;22.10
51081;BME280;37130;55.670;37.596;2023-06-26T06:34:42;99384.47;;;36.49;22.68
51081;BME280;37130;55.670;37.596;2023-06-26T06:37:10;99371.72;;;35.91;21.27
51081;BME280;37130;55.670;37.596;2023-06-26T06:39:37;99370.13;;;35.31;21.29
51081;BME280;37130;55.670;37.596;2023-06-26T06:42:05;99362.69;;;34.96;22.36
51081;BME280;37130;55.670;37.596;2023-06-26T06:44:33;99374.41;;;34.80;21.84
51081;BME280;37130;55.670;37.596;2023-06-26T06:47:00;99362.44;;;34.56;22.52
51081;BME280;37130;55.670;37.596;2023-06-26T06:49:28;99362.16;;;34.76;22.06
51081;BME280;37130;55.670;37.596;2023-06-26T06:51:55;99366.13;;;34.80;21.98
51081;BME280;37130;55.670;37.596;2023-06-26T06:54:26;99349.16;;;34.53;22.70
51081;BME280;37130;55.670;37.596;2023-06-26T06:56:54;99358.50;;;34.94;22.57
51081;BME280;37130;55.670;37.596;2023-06-26T06:59:22;99352.03;;;34.88;21.50
51081;BME280;37130;55.670;37.596;2023-06-26T07:01:49;99350.59;;;34.55;22.18
51081;BME280;37130;55.670;37.596;2023-06-26T07:04:17;99348.19;;;34.77;22.27
51081;BME280;37130;55.670;37.596;2023-06-26T07:06:44;99344.16;;;35.27;21.79
51081;BME280;37130;55.670;37.596;2023-06-26T07:09:11;99356.03;;;35.91;21.44
51081;BME280;37130;55.670;37.596;2023-06-26T07:11:39;99360.25;;;36.23;21.20
51081;BME280;37130;55.670;37.596;2023-06-26T07:14:06;99358.72;;;36.15;20.49
51081;BME280;37130;55.670;37.596;2023-06-26T07:16:33;99345.00;;;36.32;20.60
51081;BME280;37130;55.670;37.596;2023-06-26T07:19:01;99358.25;;;35.19;21.65
51081;BME280;37130;55.670;37.596;2023-06-26T07:21:29;99351.69;;;34.54;21.53
51081;BME280;37130;55.670;37.596;2023-06-26T07:23:56;99341.31;;;34.56;21.54
51081;BME280;37130;55.670;37.596;2023-06-26T07:26:24;99349.50;;;34.75;21.60
51081;BME280;37130;55.670;37.596;2023-06-26T07:29:10;99349.03;;;34.47;21.95
51081;BME280;37130;55.670;37.596;2023-06-26T07:31:37;99345.03;;;34.62;22.49
51081;BME280;37130;55.670;37.596;2023-06-26T07:34:04;99351.69;;;34.54;21.69
51081;BME280;37130;55.670;37.596;2023-06-26T07:36:32;99342.44;;;34.79;21.87
51081;BME280;37130;55.670;37.596;2023-06-26T07:38:59;99324.97;;;34.61;22.38
51081;BME280;37130;55.670;37.596;2023-06-26T07:41:26;99333.13;;;34.38;22.22
51081;BME280;37130;55.670;37.596;2023-06-26T07:43:57;99323.28;;;34.84;22.87
51081;BME280;37130;55.670;37.596;2023-06-26T07:46:25;99338.28;;;35.35;21.98
51081;BME280;37130;55.670;37.596;2023-06-26T07:48:53;99338.75;;;35.44;21.78
51081;BME280;37130;55.670;37.596;2023-06-26T07:51:21;99327.63;;;35.27;22.01
51081;BME280;37130;55.670;37.596;2023-06-26T07:53:48;99336.59;;;35.34;21.98
51081;BME280;37130;55.670;37.596;2023-06-26T07:56:16;99322.59;;;34.88;22.25
51081;BME280;37130;55.670;37.596;2023-06-26T07:58:44;99330.59;;;34.66;22.61
51081;BME280;37130;55.670;37.596;2023-06-26T08:01:11;99314.59;;;33.29;23.71
51081;BME280;37130;55.670;37.596;2023-06-26T08:03:39;99316.75;;;31.75;25.08
51081;BME280;37130;55.670;37.596;2023-06-26T08:06:07;99310.63;;;30.75;26.31
51081;BME280;37130;55.670;37.596;2023-06-26T08:08:38;99316.66;;;29.56;27.09
51081;BME280;37130;55.670;37.596;2023-06-26T08:11:06;99317.50;;;28.65;28.19
51081;BME280;37130;55.670;37.596;2023-06-26T08:13:33;99316.44;;;28.88;28.47
51081;BME280;37130;55.670;37.596;2023-06-26T08:16:01;99315.44;;;29.65;27.37
51081;BME280;37130;55.670;37.596;2023-06-26T08:18:28;99313.72;;;28.94;27.63
51081;BME280;37130;55.670;37.596;2023-06-26T08:20:56;99312.22;;;28.21;29.21
51081;BME280;37130;55.670;37.596;2023-06-26T08:23:23;99316.91;;;27.54;29.77
51081;BME280;37130;55.670;37.596;2023-06-26T08:25:53;99323.97;;;26.96;29.98
51081;BME280;37130;55.670;37.596;2023-06-26T08:28:20;99321.41;;;26.41;31.05
51081;BME280;37130;55.670;37.596;2023-06-26T08:30:48;99317.59;;;26.05;31.71
51081;BME280;37130;55.670;37.596;2023-06-26T08:33:15;99316.25;;;25.61;32.15
51081;BME280;37130;55.670;37.596;2023-06-26T08:35:43;99317.94;;;25.31;33.15
51081;BME280;37130;55.670;37.596;2023-06-26T08:38:10;99303.22;;;25.17;33.14
51081;BME280;37130;55.670;37.596;2023-06-26T08:40:38;99308.63;;;25.09;33.52
51081;BME280;37130;55.670;37.596;2023-06-26T08:43:06;99298.88;;;24.83;33.70
51081;BME280;37130;55.670;37.596;2023-06-26T08:45:33;99316.34;;;24.64;34.30
51081;BME280;37130;55.670;37.596;2023-06-26T08:48:02;99314.81;;;24.45;34.53
51081;BME280;37130;55.670;37.596;2023-06-26T08:50:34;99308.84;;;24.34;35.19
51081;BME280;37130;55.670;37.596;2023-06-26T08:55:41;99303.59;;;24.08;35.03
51081;BME280;37130;55.670;37.596;2023-06-26T08:58:10;99312.56;;;24.08;35.34
51081;BME280;37130;55.670;37.596;2023-06-26T09:00:39;99285.81;;;23.97;35.92
51081;BME280;37130;55.670;37.596;2023-06-26T09:03:07;99306.97;;;24.18;37.33
51081;BME280;37130;55.670;37.596;2023-06-26T09:05:36;99309.88;;;24.24;36.45
51081;BME280;37130;55.670;37.596;2023-06-26T09:08:04;99292.47;;;24.19;36.35
51081;BME280;37130;55.670;37.596;2023-06-26T09:10:32;99305.66;;;24.22;36.16
51081;BME280;37130;55.670;37.596;2023-06-26T09:13:00;99308.34;;;24.22;37.33
51081;BME280;37130;55.670;37.596;2023-06-26T09:15:46;99301.41;;;24.19;37.08
51081;BME280;37130;55.670;37.596;2023-06-26T09:18:17;99301.75;;;24.16;36.39
51081;BME280;37130;55.670;37.596;2023-06-26T09:20:45;99304.13;;;24.11;36.22
51081;BME280;37130;55.670;37.596;2023-06-26T09:23:13;99307.31;;;24.06;36.21
51081;BME280;37130;55.670;37.596;2023-06-26T09:25:41;99304.75;;;23.97;36.38
51081;BME280;37130;55.670;37.596;2023-06-26T09:28:11;99308.63;;;23.86;36.65
51081;BME280;37130;55.670;37.596;2023-06-26T09:30:39;99310.13;;;23.80;36.79
51081;BME280;37130;55.670;37.596;2023-06-26T09:33:14;99313.81;;;23.71;36.34
51081;BME280;37130;55.670;37.596;2023-06-26T09:35:43;99322.50;;;23.49;38.17
51081;BME280;37130;55.670;37.596;2023-06-26T09:38:12;99327.94;;;22.70;39.58
51081;BME280;37130;55.670;37.596;2023-06-26T09:40:40;99317.63;;;22.12;42.15
51081;BME280;37130;55.670;37.596;2023-06-26T09:43:09;99313.91;;;21.95;42.38
51081;BME280;37130;55.670;37.596;2023-06-26T09:45:40;99317.88;;;22.01;43.35
51081;BME280;37130;55.670;37.596;2023-06-26T09:48:08;99322.25;;;22.02;43.17
51081;BME280;37130;55.670;37.596;2023-06-26T09:50:36;99318.41;;;22.04;44.41
51081;BME280;37130;55.670;37.596;2023-06-26T09:53:12;99306.91;;;22.02;44.80
51081;BME280;37130;55.670;37.596;2023-06-26T09:55:45;99308.81;;;22.20;45.46
51081;BME280;37130;55.670;37.596;2023-06-26T09:58:14;99299.09;;;22.27;45.92
51081;BME280;37130;55.670;37.596;2023-06-26T10:00:44;99300.72;;;22.20;46.96
51081;BME280;37130;55.670;37.596;2023-06-26T10:03:11;99300.44;;;22.13;47.78
51081;BME280;37130;55.670;37.596;2023-06-26T10:05:40;99315.44;;;22.25;47.52
51081;BME280;37130;55.670;37.596;2023-06-26T10:08:08;99305.53;;;22.34;48.45
51081;BME280;37130;55.670;37.596;2023-06-26T10:10:36;99296.22;;;22.46;46.08
51081;BME280;37130;55.670;37.596;2023-06-26T10:13:12;99278.28;;;22.63;46.02
51081;BME280;37130;55.670;37.596;2023-06-26T10:15:44;99289.38;;;22.86;47.09
51081;BME280;37130;55.670;37.596;2023-06-26T10:18:13;99283.88;;;22.96;46.97
51081;BME280;37130;55.670;37.596;2023-06-26T10:20:47;99280.13;;;22.89;47.28
51081;BME280;37130;55.670;37.596;2023-06-26T10:23:19;99293.94;;;23.04;46.91
51081;BME280;37130;55.670;37.596;2023-06-26T10:25:48;99287.22;;;23.16;45.84
51081;BME280;37130;55.670;37.596;2023-06-26T10:28:20;99289.66;;;23.27;45.59
51081;BME280;37130;55.670;37.596;2023-06-26T10:30:50;99277.84;;;23.36;44.75
51081;BME280;37130;55.670;37.596;2023-06-26T10:33:19;99276.22;;;23.52;44.29
51081;BME280;37130;55.670;37.596;2023-06-26T10:35:47;99279.34;;;23.73;43.48
51081;BME280;37130;55.670;37.596;2023-06-26T10:38:14;99278.88;;;23.94;43.29
51081;BME280;37130;55.670;37.596;2023-06-26T10:40:42;99277.41;;;24.16;43.29
51081;BME280;37130;55.670;37.596;2023-06-26T10:43:14;99270.63;;;24.37;42.90
51081;BME280;37130;55.670;37.596;2023-06-26T10:45:47;99270.63;;;24.37;41.25
51081;BME280;37130;55.670;37.596;2023-06-26T10:48:20;99263.34;;;24.37;41.04
51081;BME280;37130;55.670;37.596;2023-06-26T10:50:49;99270.47;;;24.55;42.08
51081;BME280;37130;55.670;37.596;2023-06-26T10:56:03;99261.81;;;24.67;40.21
51081;BME280;37130;55.670;37.596;2023-06-26T11:03:39;99256.59;;;24.66;40.11
51081;BME280;37130;55.670;37.596;2023-06-26T11:06:34;99254.56;;;24.60;40.14
51081;BME280;37130;55.670;37.596;2023-06-26T11:14:20;99242.75;;;25.08;38.28
51081;BME280;37130;55.670;37.596;2023-06-26T11:16:48;99236.38;;;25.41;37.72
51081;BME280;37130;55.670;37.596;2023-06-26T11:19:19;99242.56;;;25.57;37.00
51081;BME280;37130;55.670;37.596;2023-06-26T11:21:47;99247.13;;;25.88;36.99
51081;BME280;37130;55.670;37.596;2023-06-26T11:24:15;99238.13;;;26.11;36.21
51081;BME280;37130;55.670;37.596;2023-06-26T11:26:44;99237.91;;;26.20;35.16
51081;BME280;37130;55.670;37.596;2023-06-26T11:29:12;99239.50;;;26.30;35.60
51081;BME280;37130;55.670;37.596;2023-06-26T11:31:40;99229.16;;;26.48;34.77
51081;BME280;37130;55.670;37.596;2023-06-26T11:34:10;99237.09;;;26.73;33.81
51081;BME280;37130;55.670;37.596;2023-06-26T11:36:41;99225.47;;;26.79;33.75
51081;BME280;37130;55.670;37.596;2023-06-26T11:39:13;99234.84;;;26.76;33.44
51081;BME280;37130;55.670;37.596;2023-06-26T11:41:40;99220.88;;;26.79;33.09
51081;BME280;37130;55.670;37.596;2023-06-26T11:44:10;99216.78;;;26.83;32.71
51081;BME280;37130;55.670;37.596;2023-06-26T11:46:38;99216.38;;;26.86;32.01
51081;BME280;37130;55.670;37.596;2023-06-26T11:49:08;99214.44;;;26.80;31.54
51081;BME280;37130;55.670;37.596;2023-06-26T11:51:35;99205.78;;;26.77;31.38
51081;BME280;37130;55.670;37.596;2023-06-26T11:54:04;99205.81;;;26.92;31.21
51081;BME280;37130;55.670;37.596;2023-06-26T11:56:31;99190.44;;;26.99;31.55
51081;BME280;37130;55.670;37.596;2023-06-26T11:59:07;99204.78;;;27.22;31.28
51081;BME280;37130;55.670;37.596;2023-06-26T12:04:10;99188.72;;;26.98;31.84
51081;BME280;37130;55.670;37.596;2023-06-26T12:06:42;99198.56;;;26.69;31.89
51081;BME280;37130;55.670;37.596;2023-06-26T12:09:11;99195.41;;;26.80;32.41
51081;BME280;37130;55.670;37.596;2023-06-26T12:11:41;99189.56;;;26.98;31.58
51081;BME280;37130;55.670;37.596;2023-06-26T12:14:10;99180.78;;;26.81;31.55
51081;BME280;37130;55.670;37.596;2023-06-26T12:16:39;99159.97;;;26.74;31.93
51081;BME280;37130;55.670;37.596;2023-06-26T12:19:08;99175.66;;;26.49;31.94
51081;BME280;37130;55.670;37.596;2023-06-26T12:24:09;99175.72;;;25.88;32.88
51081;BME280;37130;55.670;37.596;2023-06-26T12:26:37;99189.25;;;25.65;32.92
51081;BME280;37130;55.670;37.596;2023-06-26T12:29:13;99175.63;;;25.27;33.33
51081;BME280;37130;55.670;37.596;2023-06-26T12:31:43;99175.00;;;25.08;33.34
51081;BME280;37130;55.670;37.596;2023-06-26T12:34:12;99162.78;;;24.81;33.54
51081;BME280;37130;55.670;37.596;2023-06-26T12:36:49;99176.63;;;24.78;32.89
51081;BME280;37130;55.670;37.596;2023-06-26T12:39:18;99174.47;;;24.74;32.85
51081;BME280;37130;55.670;37.596;2023-06-26T12:41:52;99174.63;;;24.72;32.85
51081;BME280;37130;55.670;37.596;2023-06-26T12:44:29;99166.31;;;24.82;33.50
51081;BME280;37130;55.670;37.596;2023-06-26T12:46:57;99169.38;;;24.70;33.71
51081;BME280;37130;55.670;37.596;2023-06-26T12:49:34;99170.03;;;24.89;33.45
51081;BME280;37130;55.670;37.596;2023-06-26T12:52:03;99147.16;;;24.83;32.31
51081;BME280;37130;55.670;37.596;2023-06-26T12:54:33;99173.94;;;24.86;32.31
51081;BME280;37130;55.670;37.596;2023-06-26T12:57:01;99164.28;;;24.84;32.53
51081;BME280;37130;55.670;37.596;2023-06-26T12:59:32;99166.69;;;24.79;32.62
51081;BME280;37130;55.670;37.596;2023-06-26T13:01:59;99152.50;;;24.68;33.07
51081;BME280;37130;55.670;37.596;2023-06-26T13:04:28;99169.03;;;24.82;32.57
51081;BME280;37130;55.670;37.596;2023-06-26T13:06:56;99163.97;;;24.70;33.03
51081;BME280;37130;55.670;37.596;2023-06-26T13:09:24;99167.56;;;24.55;33.62
51081;BME280;37130;55.670;37.596;2023-06-26T13:11:52;99166.94;;;24.44;33.88
51081;BME280;37130;55.670;37.596;2023-06-26T13:14:20;99152.50;;;24.44;33.61
51081;BME280;37130;55.670;37.596;2023-06-26T13:16:48;99144.56;;;24.59;33.13
51081;BME280;37130;55.670;37.596;2023-06-26T13:19:16;99142.28;;;24.79;32.49
51081;BME280;37130;55.670;37.596;2023-06-26T13:21:48;99143.19;;;25.02;32.06
51081;BME280;37130;55.670;37.596;2023-06-26T13:24:15;99137.53;;;25.20;32.24
51081;BME280;37130;55.670;37.596;2023-06-26T13:26:43;99148.19;;;25.22;31.79